Time;durP1;ratioP1;P1;durP2;ratioP2;P2;SDS_P1;SDS_P2;PMS_P1;PMS_P2;Temp;Humidity;BMP_temperature;BMP_pressure;BME280_temperature;BME280_humidity;BME280_pressure;Samples;Min_cycle;Max_cycle;Signal;HPM_P1;HPM_P2
2023/08/25 00:00:37;;;;;;;12.73;11.18;;;;;;;18.82;100.00;100819.13;5048620;28;20021;-75
2023/08/25 00:03:03;;;;;;;11.80;10.10;;;;;;;18.85;100.00;100834.78;5048861;28;20028;-75
2023/08/25 00:05:28;;;;;;;12.45;11.20;;;;;;;18.79;100.00;100830.94;5048907;28;20052;-75
2023/08/25 00:07:54;;;;;;;11.95;10.35;;;;;;;18.77;100.00;100838.28;5049430;28;20057;-75
2023/08/25 00:10:19;;;;;;;12.30;11.07;;;;;;;18.78;100.00;100837.28;5049001;28;20088;-75
2023/08/25 00:12:46;;;;;;;11.60;10.50;;;;;;;18.79;100.00;100840.78;5048874;28;20039;-75
2023/08/25 00:15:12;;;;;;;11.63;10.48;;;;;;;18.72;100.00;100840.59;5048533;28;20085;-75
2023/08/25 00:17:37;;;;;;;12.10;10.57;;;;;;;18.73;100.00;100841.44;5050469;28;20106;-75
2023/08/25 00:20:05;;;;;;;13.80;11.65;;;;;;;18.70;100.00;100837.28;5047222;28;20439;-75
2023/08/25 00:22:30;;;;;;;12.60;11.25;;;;;;;18.67;100.00;100845.59;5049015;28;20037;-75
2023/08/25 00:24:56;;;;;;;12.43;11.25;;;;;;;18.65;100.00;100844.94;5048723;28;20032;-74
2023/08/25 00:27:22;;;;;;;13.55;12.27;;;;;;;18.61;100.00;100843.56;5048230;28;20424;-75
2023/08/25 00:29:48;;;;;;;15.10;11.48;;;;;;;18.59;100.00;100834.09;5032204;28;20032;-75
2023/08/25 00:32:13;;;;;;;14.23;12.68;;;;;;;18.57;100.00;100842.25;5027631;28;20025;-75
2023/08/25 00:34:39;;;;;;;12.13;10.82;;;;;;;18.56;100.00;100851.25;5028458;28;20083;-75
2023/08/25 00:37:04;;;;;;;13.38;12.05;;;;;;;18.54;100.00;100853.22;5027627;28;20026;-75
2023/08/25 00:39:30;;;;;;;12.80;11.50;;;;;;;18.50;100.00;100846.56;5027607;28;20053;-75
2023/08/25 00:41:55;;;;;;;12.88;11.50;;;;;;;18.49;100.00;100850.22;5028096;28;20036;-74
2023/08/25 00:44:20;;;;;;;14.70;11.10;;;;;;;18.44;100.00;100848.06;5028925;28;20032;-74
2023/08/25 00:46:46;;;;;;;14.30;11.88;;;;;;;18.43;100.00;100848.22;5026897;28;20040;-74
2023/08/25 00:49:13;;;;;;;12.60;11.40;;;;;;;18.39;100.00;100845.03;5028029;28;20048;-74
2023/08/25 00:51:38;;;;;;;12.05;10.80;;;;;;;18.35;100.00;100841.03;5028989;28;20057;-75
2023/08/25 00:54:04;;;;;;;12.43;11.23;;;;;;;18.35;100.00;100845.53;5033259;28;20045;-74
2023/08/25 00:56:31;;;;;;;13.73;12.02;;;;;;;18.32;100.00;100832.53;5047963;28;20021;-74
2023/08/25 00:58:57;;;;;;;13.65;12.27;;;;;;;18.35;100.00;100837.53;5048434;28;20539;-74
2023/08/25 01:01:23;;;;;;;13.25;11.52;;;;;;;18.33;100.00;100834.22;5049308;28;20025;-74
2023/08/25 01:03:48;;;;;;;14.02;12.65;;;;;;;18.36;100.00;100837.38;5047642;28;20036;-74
2023/08/25 01:06:14;;;;;;;13.90;11.90;;;;;;;18.37;100.00;100835.53;5049460;28;20037;-74
2023/08/25 01:08:40;;;;;;;13.60;12.40;;;;;;;18.33;100.00;100839.53;5049712;28;20119;-74
2023/08/25 01:11:20;;;;;;;13.02;11.23;;;;;;;18.37;100.00;100843.53;5048966;28;20424;-74
2023/08/25 01:13:45;;;;;;;15.77;12.55;;;;;;;18.34;100.00;100838.53;5053579;28;20029;-74
2023/08/25 01:16:16;;;;;;;13.45;11.98;;;;;;;18.34;100.00;100836.72;5052791;28;20027;-74
2023/08/25 01:18:44;;;;;;;14.30;12.80;;;;;;;18.31;100.00;100836.19;5053617;28;20050;-74
2023/08/25 01:21:11;;;;;;;13.95;12.63;;;;;;;18.31;100.00;100826.38;5053309;28;20527;-74
2023/08/25 01:23:55;;;;;;;12.57;11.48;;;;;;;18.34;100.00;100828.72;5053275;28;20509;-74
2023/08/25 01:26:20;;;;;;;13.82;11.85;;;;;;;18.29;100.00;100822.22;5052461;28;20481;-74
2023/08/25 01:28:50;;;;;;;12.63;11.32;;;;;;;18.28;100.00;100824.03;5043772;28;20029;-74
2023/08/25 01:31:16;;;;;;;12.13;11.05;;;;;;;18.26;100.00;100822.53;5031692;28;20488;-73
2023/08/25 01:33:45;;;;;;;14.00;12.55;;;;;;;18.25;100.00;100815.56;5032281;28;20029;-73
2023/08/25 01:36:20;;;;;;;14.35;13.05;;;;;;;18.22;100.00;100815.88;5030713;28;20400;-73
2023/08/25 01:39:06;;;;;;;16.20;11.80;;;;;;;18.27;100.00;100824.22;5031323;28;20033;-74
2023/08/25 01:41:36;;;;;;;13.85;12.50;;;;;;;18.24;100.00;100824.53;5031994;28;20100;-73
2023/08/25 01:44:04;;;;;;;13.23;11.88;;;;;;;18.29;100.00;100816.88;5030507;28;20021;-73
2023/08/25 01:46:31;;;;;;;13.32;12.13;;;;;;;18.26;100.00;100818.06;5031060;28;20033;-73
2023/08/25 01:48:58;;;;;;;12.57;11.48;;;;;;;18.29;100.00;100817.72;5031653;28;20120;-74
2023/08/25 01:51:24;;;;;;;14.77;13.27;;;;;;;18.28;100.00;100809.91;5029908;28;20056;-73
2023/08/25 01:53:53;;;;;;;15.07;13.68;;;;;;;18.28;100.00;100815.22;5034226;28;20026;-73
2023/08/25 01:56:19;;;;;;;14.88;13.27;;;;;;;18.32;100.00;100806.72;5051723;28;20017;-73
2023/08/25 01:58:45;;;;;;;15.60;14.10;;;;;;;18.29;100.00;100804.41;5050979;28;20025;-73
2023/08/25 02:01:10;;;;;;;15.98;14.40;;;;;;;18.29;100.00;100800.91;5051520;28;20102;-74
2023/08/25 02:03:36;;;;;;;15.13;13.80;;;;;;;18.34;100.00;100804.72;5052089;28;20029;-73
2023/08/25 02:06:01;;;;;;;15.27;13.73;;;;;;;18.33;100.00;100796.91;5050811;28;20033;-73
2023/08/25 02:08:26;;;;;;;16.45;14.75;;;;;;;18.34;100.00;100801.25;5052395;28;20251;-73
2023/08/25 02:10:52;;;;;;;16.25;14.65;;;;;;;18.37;100.00;100798.25;5052181;28;20048;-73
2023/08/25 02:13:18;;;;;;;17.27;15.50;;;;;;;18.41;100.00;100799.56;5052048;28;20029;-73
2023/08/25 02:15:48;;;;;;;19.13;16.92;;;;;;;18.35;100.00;100800.25;5052327;28;20016;-74
2023/08/25 02:18:14;;;;;;;18.30;16.33;;;;;;;18.36;100.00;100793.91;5052306;28;20435;-74
2023/08/25 02:20:40;;;;;;;17.63;15.73;;;;;;;18.37;100.00;100793.75;5052029;28;20079;-74
2023/08/25 02:23:06;;;;;;;17.48;15.77;;;;;;;18.39;100.00;100791.75;5051685;28;20031;-74
2023/08/25 02:25:32;;;;;;;18.67;16.73;;;;;;;18.44;100.00;100788.63;5052075;28;20024;-74
2023/08/25 02:27:57;;;;;;;19.63;17.77;;;;;;;18.47;100.00;100793.63;5049685;28;20031;-74
2023/08/25 02:30:23;;;;;;;19.95;17.90;;;;;;;18.49;100.00;100791.63;5032137;28;20029;-74
2023/08/25 02:32:49;;;;;;;21.67;19.58;;;;;;;18.50;100.00;100787.94;5032086;28;20076;-74
2023/08/25 02:35:14;;;;;;;21.17;19.05;;;;;;;18.52;100.00;100777.97;5030988;28;20017;-74
2023/08/25 02:37:59;;;;;;;22.67;20.23;;;;;;;18.56;100.00;100771.28;5031176;28;20649;-74
2023/08/25 02:40:25;;;;;;;20.92;18.83;;;;;;;18.55;100.00;100766.97;5030171;28;20026;-74
2023/08/25 02:42:52;;;;;;;22.10;20.00;;;;;;;18.56;100.00;100768.63;5030296;28;20025;-75
2023/08/25 02:45:17;;;;;;;24.42;22.02;;;;;;;18.56;100.00;100765.97;5030722;28;20029;-74
2023/08/25 02:47:42;;;;;;;24.63;22.00;;;;;;;18.59;100.00;100764.78;5030049;28;20563;-74
2023/08/25 02:50:08;;;;;;;26.25;23.63;;;;;;;18.59;100.00;100744.31;5029265;28;20071;-74
2023/08/25 02:52:34;;;;;;;26.02;23.42;;;;;;;18.59;100.00;100757.63;5029881;28;20026;-74
2023/08/25 02:55:00;;;;;;;26.00;23.40;;;;;;;18.61;100.00;100750.28;5040781;28;20028;-74
2023/08/25 02:57:25;;;;;;;27.83;24.92;;;;;;;18.62;100.00;100757.31;5050540;28;20021;-74
2023/08/25 02:59:51;;;;;;;26.55;23.88;;;;;;;18.61;100.00;100747.63;5050384;28;20477;-74
2023/08/25 03:02:16;;;;;;;27.33;24.45;;;;;;;18.62;100.00;100744.00;5048634;28;20031;-74
2023/08/25 03:04:44;;;;;;;26.30;23.70;;;;;;;18.63;100.00;100745.66;5050502;28;20107;-73
2023/08/25 03:07:10;;;;;;;27.20;24.45;;;;;;;18.62;100.00;100736.00;5049033;28;20017;-74
2023/08/25 03:09:35;;;;;;;27.90;25.15;;;;;;;18.61;100.00;100731.66;5051321;28;20372;-74
2023/08/25 03:12:00;;;;;;;27.98;25.08;;;;;;;18.64;100.00;100736.66;5049807;28;20028;-74
2023/08/25 03:14:26;;;;;;;28.45;24.48;;;;;;;18.65;100.00;100733.00;5050145;28;20021;-74
2023/08/25 03:16:52;;;;;;;29.25;26.13;;;;;;;18.63;100.00;100727.00;5050397;28;20057;-74
2023/08/25 03:19:18;;;;;;;27.27;24.58;;;;;;;18.63;100.00;100724.34;5051267;28;20442;-74
2023/08/25 03:21:43;;;;;;;27.63;24.92;;;;;;;18.65;100.00;100724.16;5051175;28;20108;-74
2023/08/25 03:24:09;;;;;;;27.73;24.90;;;;;;;18.64;100.00;100726.00;5050550;28;20024;-74
2023/08/25 03:26:34;;;;;;;27.85;25.10;;;;;;;18.63;100.00;100718.19;5051621;28;20105;-74
2023/08/25 03:29:00;;;;;;;28.08;25.27;;;;;;;18.65;100.00;100706.34;5039317;28;20030;-74
2023/08/25 03:31:25;;;;;;;28.73;24.95;;;;;;;18.66;100.00;100710.69;5030556;28;20029;-74
2023/08/25 03:33:50;;;;;;;30.42;25.38;;;;;;;18.68;100.00;100714.00;5030393;28;20439;-73
2023/08/25 03:36:16;;;;;;;27.40;24.73;;;;;;;18.70;100.00;100704.00;5030587;28;20481;-74
2023/08/25 03:38:42;;;;;;;28.33;25.52;;;;;;;18.69;100.00;100704.16;5030170;28;20029;-74
2023/08/25 03:41:10;;;;;;;26.95;24.27;;;;;;;18.71;100.00;100700.34;5030541;28;20473;-73
2023/08/25 03:43:36;;;;;;;28.08;25.15;;;;;;;18.74;100.00;100694.66;5028949;28;20029;-74
2023/08/25 03:46:03;;;;;;;27.13;24.50;;;;;;;18.73;100.00;100687.66;5028840;28;20112;-73
2023/08/25 03:48:28;;;;;;;27.65;24.90;;;;;;;18.72;100.00;100691.34;5029469;28;20514;-73
2023/08/25 03:50:54;;;;;;;28.20;25.40;;;;;;;18.76;100.00;100692.66;5028717;28;20021;-73
2023/08/25 03:53:19;;;;;;;28.30;25.25;;;;;;;18.75;100.00;100696.31;5028151;28;20033;-73
2023/08/25 03:55:44;;;;;;;27.00;24.05;;;;;;;18.76;100.00;100691.81;5047748;28;20025;-74
2023/08/25 03:58:10;;;;;;;28.15;25.27;;;;;;;18.76;100.00;100697.16;5048680;28;20643;-73
2023/08/25 04:00:36;;;;;;;26.83;24.33;;;;;;;18.75;100.00;100696.31;5049764;28;20025;-73
2023/08/25 04:03:03;;;;;;;27.15;24.45;;;;;;;18.75;100.00;100695.50;5049221;28;20033;-74
2023/08/25 04:05:29;;;;;;;26.83;24.13;;;;;;;18.75;100.00;100685.66;5048589;28;20032;-73
2023/08/25 04:07:55;;;;;;;27.85;25.15;;;;;;;18.79;100.00;100689.66;5048945;28;20025;-73
2023/08/25 04:10:21;;;;;;;27.98;25.17;;;;;;;18.84;100.00;100693.66;5047826;28;20032;-74
2023/08/25 04:12:46;;;;;;;26.42;23.90;;;;;;;18.83;100.00;100692.84;5048463;28;20021;-73
2023/08/25 04:15:11;;;;;;;26.88;24.35;;;;;;;18.82;100.00;100685.00;5048992;28;20021;-74
2023/08/25 04:17:39;;;;;;;27.40;23.17;;;;;;;18.81;100.00;100678.81;5048853;28;20021;-74
2023/08/25 04:20:06;;;;;;;26.88;23.98;;;;;;;18.82;100.00;100685.84;5049316;28;20060;-75
2023/08/25 04:22:31;;;;;;;27.75;24.95;;;;;;;18.80;100.00;100682.47;5048680;28;20063;-74
2023/08/25 04:24:56;;;;;;;27.95;24.98;;;;;;;18.82;100.00;100685.00;5048344;28;20084;-74
2023/08/25 04:27:22;;;;;;;29.35;25.23;;;;;;;18.79;100.00;100681.66;5049367;28;20048;-74
2023/08/25 04:29:48;;;;;;;27.65;24.73;;;;;;;18.81;100.00;100677.97;5031900;28;20060;-74
2023/08/25 04:32:15;;;;;;;30.33;23.50;;;;;;;18.79;100.00;100681.66;5029955;28;20393;-74
2023/08/25 04:34:40;;;;;;;27.35;24.42;;;;;;;18.81;100.00;100677.97;5029826;28;20436;-74
2023/08/25 04:37:06;;;;;;;26.42;23.83;;;;;;;18.76;100.00;100687.31;5029941;28;20025;-74
2023/08/25 04:39:31;;;;;;;26.45;23.73;;;;;;;18.80;100.00;100679.81;5029934;28;20386;-74
2023/08/25 04:41:57;;;;;;;29.10;26.13;;;;;;;18.79;100.00;100680.81;5028989;28;20041;-73
2023/08/25 04:44:22;;;;;;;28.98;26.05;;;;;;;18.81;100.00;100688.66;5029960;28;20482;-73
2023/08/25 04:46:47;;;;;;;29.05;25.05;;;;;;;18.82;100.00;100695.66;5029266;28;20052;-73
2023/08/25 04:49:13;;;;;;;29.38;26.27;;;;;;;18.84;100.00;100688.34;5029023;28;20049;-73
2023/08/25 04:51:39;;;;;;;31.35;25.40;;;;;;;18.84;100.00;100675.84;5029258;28;20022;-73
2023/08/25 04:54:04;;;;;;;29.42;26.20;;;;;;;18.82;100.00;100677.00;5033022;28;20017;-73
2023/08/25 04:56:30;;;;;;;27.90;25.13;;;;;;;18.81;100.00;100676.16;5048267;28;20474;-73
2023/08/25 04:58:55;;;;;;;29.40;25.42;;;;;;;18.81;100.00;100667.31;5048598;28;20110;-73
2023/08/25 05:01:20;;;;;;;31.75;26.85;;;;;;;18.78;100.00;100663.16;5048241;28;20049;-74
2023/08/25 05:03:48;;;;;;;32.08;26.02;;;;;;;18.79;100.00;100663.00;5047269;28;20408;-74
2023/08/25 05:06:14;;;;;;;28.88;26.02;;;;;;;18.77;100.00;100654.34;5048650;28;20520;-74
2023/08/25 05:08:39;;;;;;;28.88;25.67;;;;;;;18.81;100.00;100656.66;5048372;28;20052;-74
2023/08/25 05:11:04;;;;;;;28.75;25.42;;;;;;;18.78;100.00;100650.66;5048755;28;20120;-74
2023/08/25 05:13:30;;;;;;;30.80;26.98;;;;;;;18.79;100.00;100659.50;5048622;28;20095;-74
2023/08/25 05:15:55;;;;;;;29.15;26.15;;;;;;;18.82;100.00;100664.50;5046678;28;20362;-73
2023/08/25 05:18:20;;;;;;;30.35;26.98;;;;;;;18.79;100.00;100659.50;5048458;28;20017;-74
2023/08/25 05:20:46;;;;;;;30.70;25.60;;;;;;;18.83;100.00;100662.69;5048653;28;20509;-74
2023/08/25 05:23:11;;;;;;;28.40;25.33;;;;;;;18.82;100.00;100663.69;5046315;28;20453;-74
2023/08/25 05:25:37;;;;;;;29.60;26.23;;;;;;;18.86;100.00;100671.16;5048993;28;20060;-74
2023/08/25 05:28:03;;;;;;;26.70;23.90;;;;;;;18.86;100.00;100660.50;5045254;28;20087;-74
2023/08/25 05:30:29;;;;;;;25.05;22.45;;;;;;;18.90;100.00;100676.97;5028834;28;20025;-74
2023/08/25 05:32:54;;;;;;;26.48;22.70;;;;;;;18.95;100.00;100685.28;5028061;28;20048;-74
2023/08/25 05:35:19;;;;;;;25.48;23.08;;;;;;;19.03;100.00;100670.09;5029409;28;20075;-74
2023/08/25 05:37:45;;;;;;;24.98;22.55;;;;;;;19.07;100.00;100657.22;5028898;28;20026;-74
2023/08/25 05:40:12;;;;;;;20.60;18.60;;;;;;;19.13;100.00;100661.88;5029163;28;20029;-74
2023/08/25 05:42:38;;;;;;;17.90;15.90;;;;;;;19.13;100.00;100656.53;5029656;28;20473;-74
2023/08/25 05:45:04;;;;;;;17.58;15.27;;;;;;;19.17;100.00;100657.84;5028619;28;20025;-74
2023/08/25 05:47:29;;;;;;;15.50;13.15;;;;;;;19.16;100.00;100650.84;5028946;28;20046;-74
2023/08/25 05:49:55;;;;;;;14.40;12.05;;;;;;;19.20;100.00;100657.50;5029074;28;20029;-73
2023/08/25 05:52:21;;;;;;;16.08;11.98;;;;;;;19.15;100.00;100654.53;5028705;28;20087;-74
2023/08/25 05:54:46;;;;;;;14.68;11.05;;;;;;;19.17;100.00;100647.19;5039057;28;20021;-74
2023/08/25 05:57:12;;;;;;;12.05;10.13;;;;;;;19.15;100.00;100648.34;5048425;28;20047;-74
2023/08/25 05:59:37;;;;;;;10.98;9.85;;;;;;;19.15;100.00;100648.34;5050531;28;20484;-74
2023/08/25 06:02:02;;;;;;;10.77;9.68;;;;;;;19.10;100.00;100648.88;5051567;28;20100;-74
2023/08/25 06:04:28;;;;;;;13.15;10.02;;;;;;;19.06;100.00;100636.91;5051419;28;20109;-74
2023/08/25 06:06:54;;;;;;;15.93;10.05;;;;;;;19.08;100.00;100632.22;5051475;28;20033;-74
2023/08/25 06:09:21;;;;;;;11.65;8.63;;;;;;;19.09;100.00;100620.56;5051583;28;20032;-74
2023/08/25 06:11:47;;;;;;;11.50;9.07;;;;;;;19.07;100.00;100634.06;5049541;28;20024;-74
2023/08/25 06:14:12;;;;;;;11.48;9.25;;;;;;;19.06;100.00;100634.25;5050123;28;20571;-74
2023/08/25 06:16:38;;;;;;;15.40;9.63;;;;;;;19.06;100.00;100634.25;5051870;28;20017;-74
2023/08/25 06:19:04;;;;;;;14.48;9.45;;;;;;;19.05;100.00;100637.91;5049589;28;20113;-74
2023/08/25 06:21:29;;;;;;;11.82;9.73;;;;;;;19.06;100.00;100644.91;5051265;28;20581;-74
2023/08/25 06:23:55;;;;;;;10.98;9.35;;;;;;;19.02;100.00;100655.09;5051454;28;20028;-74
2023/08/25 06:26:20;;;;;;;11.45;9.65;;;;;;;19.02;100.00;100643.59;5050519;28;20090;-74
2023/08/25 06:28:46;;;;;;;10.30;9.23;;;;;;;19.03;100.00;100666.59;5051421;28;20029;-74
2023/08/25 06:31:12;;;;;;;16.05;10.10;;;;;;;19.01;100.00;100664.09;5050991;28;20424;-74
2023/08/25 06:33:38;;;;;;;14.50;9.13;;;;;;;18.97;100.00;100665.44;5051044;28;20033;-74
2023/08/25 06:36:04;;;;;;;12.68;8.98;;;;;;;18.95;100.00;100658.63;5051134;28;20021;-74
2023/08/25 06:38:31;;;;;;;13.57;9.82;;;;;;;18.90;100.00;100661.81;5051064;28;20082;-74
2023/08/25 06:40:56;;;;;;;10.70;9.20;;;;;;;18.88;100.00;100641.66;5050334;28;20496;-74
2023/08/25 06:43:21;;;;;;;13.57;9.18;;;;;;;18.92;100.00;100642.97;5050902;28;20033;-74
2023/08/25 06:45:47;;;;;;;12.18;9.00;;;;;;;18.92;100.00;100653.63;5050104;28;20040;-75
2023/08/25 06:48:13;;;;;;;10.55;9.48;;;;;;;18.93;100.00;100649.97;5050921;28;20557;-75
2023/08/25 06:50:38;;;;;;;12.85;9.95;;;;;;;18.87;100.00;100629.34;5052091;28;20025;-75
2023/08/25 06:53:06;;;;;;;14.43;10.57;;;;;;;18.87;100.00;100624.00;5051663;28;20092;-75
2023/08/25 06:55:36;;;;;;;14.70;10.63;;;;;;;18.87;100.00;100616.84;5034418;28;20025;-75
2023/08/25 06:58:02;;;;;;;15.93;10.82;;;;;;;18.76;100.00;100590.53;5031486;28;20017;-75
2023/08/25 07:00:27;;;;;;;14.13;11.20;;;;;;;18.68;100.00;100583.41;5031778;28;20948;-75
2023/08/25 07:02:53;;;;;;;15.00;11.25;;;;;;;18.61;100.00;100579.72;5030989;28;20029;-75
2023/08/25 07:05:18;;;;;;;16.17;11.10;;;;;;;18.59;100.00;100587.06;5031362;28;20062;-75
2023/08/25 07:07:44;;;;;;;12.77;11.13;;;;;;;18.62;100.00;100599.25;5031566;28;20473;-75
2023/08/25 07:10:12;;;;;;;12.25;10.13;;;;;;;18.63;100.00;100601.75;5030802;28;20021;-75
2023/08/25 07:12:39;;;;;;;15.20;11.38;;;;;;;18.63;100.00;100595.59;5030936;28;20037;-75
2023/08/25 07:15:06;;;;;;;15.82;11.45;;;;;;;18.61;100.00;100574.41;5029965;28;20044;-75
2023/08/25 07:17:32;;;;;;;13.38;11.05;;;;;;;18.62;100.00;100584.09;5030458;28;20424;-75
2023/08/25 07:19:57;;;;;;;15.98;11.43;;;;;;;18.62;100.00;100610.75;5030370;28;20025;-75
2023/08/25 07:22:23;;;;;;;15.05;11.60;;;;;;;18.64;100.00;100690.53;5029551;28;20029;-74
2023/08/25 07:24:50;;;;;;;16.95;11.45;;;;;;;18.62;100.00;100748.50;5028768;28;20079;-75
2023/08/25 07:27:16;;;;;;;26.48;12.73;;;;;;;18.59;100.00;100748.81;5029897;28;20029;-75
2023/08/25 07:29:44;;;;;;;23.00;13.10;;;;;;;18.52;100.00;100647.38;5045438;28;20040;-75
2023/08/25 07:32:10;;;;;;;16.90;12.00;;;;;;;18.44;100.00;100640.25;5049910;28;20546;-75
2023/08/25 07:34:36;;;;;;;14.35;12.00;;;;;;;18.42;100.00;100641.41;5050492;28;20025;-75
2023/08/25 07:37:01;;;;;;;12.45;10.73;;;;;;;18.43;100.00;100665.22;5049400;28;20844;-75
2023/08/25 07:39:27;;;;;;;14.40;11.52;;;;;;;18.48;100.00;100681.53;5048855;28;20261;-75
2023/08/25 07:41:52;;;;;;;15.15;11.18;;;;;;;18.50;100.00;100676.03;5048509;28;20119;-75
2023/08/25 07:44:18;;;;;;;12.50;11.13;;;;;;;18.53;100.00;100680.19;5049140;28;20052;-74
2023/08/25 07:46:43;;;;;;;16.35;11.52;;;;;;;18.52;100.00;100674.03;5048175;28;20041;-74
2023/08/25 07:49:09;;;;;;;13.48;11.55;;;;;;;18.55;100.00;100675.53;5049750;28;20029;-75
2023/08/25 07:51:38;;;;;;;14.35;11.13;;;;;;;18.53;100.00;100669.53;5050199;28;20485;-75
2023/08/25 07:54:04;;;;;;;14.65;11.02;;;;;;;18.48;100.00;100684.19;5044748;28;20025;-75
2023/08/25 07:56:30;;;;;;;14.93;11.57;;;;;;;18.48;100.00;100678.03;5029517;28;20029;-76
2023/08/25 07:58:56;;;;;;;15.85;11.35;;;;;;;18.49;100.00;100674.38;5028809;28;20025;-75
2023/08/25 08:01:21;;;;;;;14.68;11.85;;;;;;;18.50;100.00;100667.22;5030528;28;20014;-76
2023/08/25 08:03:47;;;;;;;12.88;10.88;;;;;;;18.49;100.00;100669.03;5030475;28;20072;-76
2023/08/25 08:06:12;;;;;;;13.25;10.52;;;;;;;18.47;100.00;100681.72;5029734;28;20025;-76
2023/08/25 08:08:38;;;;;;;17.02;11.13;;;;;;;18.48;100.00;100683.38;5030925;28;20049;-76
2023/08/25 08:11:03;;;;;;;13.00;10.85;;;;;;;18.47;100.00;100692.38;5030199;28;20433;-76
2023/08/25 08:13:29;;;;;;;14.65;11.70;;;;;;;18.44;100.00;100690.88;5029980;28;20036;-76
2023/08/25 08:15:55;;;;;;;12.93;11.18;;;;;;;18.47;100.00;100676.38;5030409;28;20555;-76
2023/08/25 08:18:21;;;;;;;12.23;11.02;;;;;;;18.46;100.00;100685.38;5029500;28;20025;-76
2023/08/25 08:20:48;;;;;;;13.85;11.35;;;;;;;18.44;100.00;100666.06;5027684;28;20025;-76
2023/08/25 08:23:13;;;;;;;14.45;11.55;;;;;;;18.47;100.00;100650.56;5029157;28;20025;-76
2023/08/25 08:25:39;;;;;;;14.57;11.50;;;;;;;18.46;100.00;100659.56;5028998;28;20029;-76
2023/08/25 08:28:06;;;;;;;15.45;12.05;;;;;;;18.45;100.00;100662.41;5031632;28;20074;-76
2023/08/25 08:30:32;;;;;;;13.80;12.50;;;;;;;18.46;100.00;100664.06;5049133;28;20040;-77
2023/08/25 08:32:57;;;;;;;14.80;12.65;;;;;;;18.45;100.00;100641.06;5047272;28;20029;-76
2023/08/25 08:35:22;;;;;;;15.60;13.13;;;;;;;18.40;100.00;100654.03;5047879;28;20055;-76
2023/08/25 08:37:48;;;;;;;15.57;13.60;;;;;;;18.42;100.00;100676.88;5049038;28;20028;-76
2023/08/25 08:40:13;;;;;;;14.68;13.23;;;;;;;18.41;100.00;100687.69;5048353;28;20044;-76
2023/08/25 08:42:39;;;;;;;15.52;13.45;;;;;;;18.40;100.00;100686.03;5049197;28;20025;-76
2023/08/25 08:45:17;;;;;;;14.70;13.35;;;;;;;18.39;100.00;100679.84;5049016;28;20025;-77
2023/08/25 08:47:44;;;;;;;14.23;12.88;;;;;;;18.36;100.00;100679.38;5046950;28;20045;-77
2023/08/25 08:50:10;;;;;;;15.15;13.75;;;;;;;18.38;100.00;100678.19;5048790;28;20033;-76
2023/08/25 08:52:35;;;;;;;15.43;13.95;;;;;;;18.38;100.00;100699.50;5049842;28;20028;-76
2023/08/25 08:55:04;;;;;;;16.95;14.52;;;;;;;18.36;100.00;100698.84;5035181;28;20033;-76
2023/08/25 08:57:30;;;;;;;15.23;13.88;;;;;;;18.34;100.00;100695.50;5029774;28;20017;-76
2023/08/25 08:59:59;;;;;;;16.88;15.27;;;;;;;18.32;100.00;100694.84;5028571;28;20032;-76
2023/08/25 09:02:29;;;;;;;17.73;15.90;;;;;;;18.30;100.00;100690.69;5029353;28;20032;-76
2023/08/25 09:04:59;;;;;;;17.45;15.75;;;;;;;18.31;100.00;100676.38;5029508;28;20030;-76
2023/08/25 09:07:28;;;;;;;18.90;17.02;;;;;;;18.29;100.00;100660.56;5029130;28;20026;-76
2023/08/25 09:09:53;;;;;;;20.35;17.25;;;;;;;18.29;100.00;100686.38;5029780;28;20036;-76
2023/08/25 09:12:20;;;;;;;19.00;17.20;;;;;;;18.32;100.00;100720.66;5029507;28;20030;-77
2023/08/25 09:14:45;;;;;;;19.23;17.33;;;;;;;18.29;100.00;100705.00;5028979;28;20473;-77
2023/08/25 09:17:14;;;;;;;18.58;16.67;;;;;;;18.24;100.00;100675.38;5029437;28;20060;-76
2023/08/25 09:19:40;;;;;;;18.45;16.80;;;;;;;18.30;100.00;100651.56;5029483;28;20032;-75
2023/08/25 09:22:09;;;;;;;19.83;17.48;;;;;;;18.35;100.00;100633.25;5027817;28;20108;-76
2023/08/25 09:24:37;;;;;;;20.25;17.90;;;;;;;18.43;100.00;100648.41;5028099;28;20025;-75
2023/08/25 09:27:02;;;;;;;21.35;19.25;;;;;;;18.51;100.00;100655.56;5027246;28;20029;-76
2023/08/25 09:29:40;;;;;;;19.38;17.48;;;;;;;18.60;100.00;100675.84;5041743;28;20037;-76
2023/08/25 09:32:05;;;;;;;19.73;18.00;;;;;;;18.61;100.00;100683.66;5048567;28;20099;-76
2023/08/25 09:34:31;;;;;;;20.33;18.23;;;;;;;18.65;100.00;100687.69;5050680;28;20428;-76
2023/08/25 09:36:56;;;;;;;19.83;17.92;;;;;;;18.68;100.00;100684.69;5051747;28;20542;-76
2023/08/25 09:39:23;;;;;;;19.30;17.48;;;;;;;18.73;100.00;100684.16;5052264;28;20025;-76
2023/08/25 09:41:49;;;;;;;19.13;17.10;;;;;;;18.74;100.00;100672.50;5052162;28;20155;-76
2023/08/25 09:44:15;;;;;;;18.70;17.08;;;;;;;18.78;100.00;100669.31;5050201;28;20104;-76
2023/08/25 09:46:45;;;;;;;19.55;17.75;;;;;;;18.85;100.00;100663.34;5052112;28;20049;-76
2023/08/25 09:49:12;;;;;;;19.30;17.48;;;;;;;18.90;100.00;100671.66;5051996;28;20036;-76
2023/08/25 09:51:39;;;;;;;19.38;17.77;;;;;;;19.01;100.00;100671.25;5050427;28;20516;-76
2023/08/25 09:54:13;;;;;;;20.70;18.75;;;;;;;19.20;100.00;100678.84;5047273;28;20104;-76
2023/08/25 09:56:45;;;;;;;20.85;19.05;;;;;;;19.30;100.00;100676.81;5031701;28;20017;-76
2023/08/25 09:59:15;;;;;;;19.20;17.45;;;;;;;19.40;100.00;100668.59;5032353;28;20021;-77
2023/08/25 10:01:45;;;;;;;18.92;17.13;;;;;;;19.52;100.00;100672.50;5033099;28;20033;-76
2023/08/25 10:04:11;;;;;;;18.73;16.98;;;;;;;19.64;100.00;100667.66;5031936;28;20058;-76
2023/08/25 10:06:40;;;;;;;18.73;16.85;;;;;;;19.67;100.00;100675.31;5032001;28;20065;-76
2023/08/25 10:09:06;;;;;;;16.50;15.05;;;;;;;19.70;100.00;100677.63;5032592;28;20493;-76
2023/08/25 10:11:44;;;;;;;16.70;15.07;;;;;;;19.76;100.00;100679.59;5032170;28;20017;-76
2023/08/25 10:14:12;;;;;;;16.85;15.38;;;;;;;19.84;100.00;100676.84;5032384;28;20531;-76
2023/08/25 10:16:53;;;;;;;18.08;15.55;;;;;;;19.98;100.00;100683.25;5033103;28;20030;-76
2023/08/25 10:19:26;;;;;;;15.13;13.80;;;;;;;20.03;100.00;100687.06;5031852;28;20030;-76
2023/08/25 10:21:53;;;;;;;14.95;13.65;;;;;;;20.13;100.00;100683.31;5032496;28;20028;-76
2023/08/25 10:24:20;;;;;;;14.27;12.82;;;;;;;20.29;100.00;100672.47;5032356;28;20030;-76
2023/08/25 10:26:47;;;;;;;14.13;12.85;;;;;;;20.36;100.00;100678.75;5031791;28;20272;-76
2023/08/25 10:29:17;;;;;;;12.90;11.77;;;;;;;20.34;100.00;100683.47;5044046;28;20043;-76
2023/08/25 10:31:51;;;;;;;12.88;11.60;;;;;;;20.36;100.00;100678.75;5050923;28;20477;-76
2023/08/25 10:34:33;;;;;;;13.35;12.15;;;;;;;20.34;100.00;100676.28;5051959;28;20536;-76
2023/08/25 10:37:10;;;;;;;19.02;12.68;;;;;;;20.27;100.00;100685.19;5051204;28;20071;-76
2023/08/25 10:40:02;;;;;;;14.13;12.85;;;;;;;20.36;100.00;100689.44;5051016;28;20456;-76
2023/08/25 10:42:31;;;;;;;14.90;13.52;;;;;;;20.26;100.00;100692.38;5051008;28;20570;-76
2023/08/25 10:45:03;;;;;;;15.93;14.32;;;;;;;20.15;100.00;100700.00;5049249;28;20087;-75
2023/08/25 10:47:28;;;;;;;15.27;13.80;;;;;;;20.07;100.00;100697.41;5049825;28;20037;-76
2023/08/25 10:49:55;;;;;;;15.63;14.23;;;;;;;20.02;100.00;100690.75;5049653;28;20047;-75
2023/08/25 10:52:22;;;;;;;15.88;14.48;;;;;;;19.97;100.00;100693.09;5050957;28;20021;-76
2023/08/25 10:54:52;;;;;;;17.27;15.73;;;;;;;19.91;100.00;100688.47;5039740;28;20036;-76
2023/08/25 10:57:21;;;;;;;16.70;15.25;;;;;;;19.92;100.00;100690.13;5030847;28;20049;-76
2023/08/25 10:59:53;;;;;;;17.58;15.75;;;;;;;19.91;100.00;100693.00;5030990;28;20025;-75